sensor_id;sensor_type;location;lat;lon;timestamp;pressure;altitude;pressure_sealevel;temperature;humidity
53340;BME280;46212;50.258;19.062;2023-04-28T00:00:27;98954.28;;;4.69;70.47
53340;BME280;46212;50.258;19.062;2023-04-28T00:02:53;98960.13;;;4.71;70.70
53340;BME280;46212;50.258;19.062;2023-04-28T00:05:19;98958.91;;;4.75;70.99
53340;BME280;46212;50.258;19.062;2023-04-28T00:07:44;98958.25;;;4.64;72.52
53340;BME280;46212;50.258;19.062;2023-04-28T00:10:10;98953.13;;;4.66;72.64
53340;BME280;46212;50.258;19.062;2023-04-28T00:12:35;98954.88;;;4.50;73.68
53340;BME280;46212;50.258;19.062;2023-04-28T00:15:01;98951.81;;;4.44;73.74
53340;BME280;46212;50.258;19.062;2023-04-28T00:17:27;98955.72;;;4.47;74.03
53340;BME280;46212;50.258;19.062;2023-04-28T00:19:53;98955.72;;;4.47;73.62
53340;BME280;46212;50.258;19.062;2023-04-28T00:22:18;98951.47;;;4.39;74.19
53340;BME280;46212;50.258;19.062;2023-04-28T00:24:44;98956.13;;;4.42;74.55
53340;BME280;46212;50.258;19.062;2023-04-28T00:27:09;98961.59;;;4.42;74.48
53340;BME280;46212;50.258;19.062;2023-04-28T00:29:35;98958.88;;;4.42;74.94
53340;BME280;46212;50.258;19.062;2023-04-28T00:32:01;98961.44;;;4.59;74.14
53340;BME280;46212;50.258;19.062;2023-04-28T00:34:27;98955.13;;;4.66;73.44
53340;BME280;46212;50.258;19.062;2023-04-28T00:36:54;98956.53;;;4.77;72.58
53340;BME280;46212;50.258;19.062;2023-04-28T00:39:19;98959.72;;;4.72;72.49
53340;BME280;46212;50.258;19.062;2023-04-28T00:41:47;98952.97;;;4.80;72.05
53340;BME280;46212;50.258;19.062;2023-04-28T00:44:12;98948.66;;;4.83;71.75
53340;BME280;46212;50.258;19.062;2023-04-28T00:46:37;98947.16;;;4.78;71.68
53340;BME280;46212;50.258;19.062;2023-04-28T00:49:03;98951.63;;;4.62;72.98
53340;BME280;46212;50.258;19.062;2023-04-28T00:51:29;98947.53;;;4.43;74.56
53340;BME280;46212;50.258;19.062;2023-04-28T00:53:55;98958.13;;;4.38;75.12
53340;BME280;46212;50.258;19.062;2023-04-28T00:56:21;98953.06;;;4.36;75.12
53340;BME280;46212;50.258;19.062;2023-04-28T00:58:46;98959.34;;;4.33;75.08
53340;BME280;46212;50.258;19.062;2023-04-28T01:01:12;98959.97;;;4.48;74.51
53340;BME280;46212;50.258;19.062;2023-04-28T01:03:38;98960.16;;;4.67;73.60
53340;BME280;46212;50.258;19.062;2023-04-28T01:06:05;98956.59;;;4.70;73.24
53340;BME280;46212;50.258;19.062;2023-04-28T01:08:31;98949.63;;;4.66;72.98
53340;BME280;46212;50.258;19.062;2023-04-28T01:10:57;98957.44;;;4.67;73.00
53340;BME280;46212;50.258;19.062;2023-04-28T01:13:23;98957.75;;;4.73;72.50
53340;BME280;46212;50.258;19.062;2023-04-28T01:15:48;98962.16;;;4.63;72.25
53340;BME280;46212;50.258;19.062;2023-04-28T01:18:15;98960.44;;;4.43;72.55
53340;BME280;46212;50.258;19.062;2023-04-28T01:20:40;98959.41;;;4.26;73.12
53340;BME280;46212;50.258;19.062;2023-04-28T01:23:16;98949.91;;;3.97;74.72
53340;BME280;46212;50.258;19.062;2023-04-28T01:25:42;98944.97;;;3.78;75.74
53340;BME280;46212;50.258;19.062;2023-04-28T01:28:08;98952.38;;;3.81;75.58
53340;BME280;46212;50.258;19.062;2023-04-28T01:30:34;98951.78;;;4.07;74.73
53340;BME280;46212;50.258;19.062;2023-04-28T01:33:00;98947.81;;;4.15;73.97
53340;BME280;46212;50.258;19.062;2023-04-28T01:35:26;98945.81;;;4.15;73.73
53340;BME280;46212;50.258;19.062;2023-04-28T01:37:51;98950.91;;;4.17;73.75
53340;BME280;46212;50.258;19.062;2023-04-28T01:40:17;98950.25;;;4.06;74.22
53340;BME280;46212;50.258;19.062;2023-04-28T01:42:42;98949.44;;;4.09;73.94
53340;BME280;46212;50.258;19.062;2023-04-28T01:45:08;98948.41;;;3.92;74.54
53340;BME280;46212;50.258;19.062;2023-04-28T01:47:33;98953.47;;;3.90;74.92
53340;BME280;46212;50.258;19.062;2023-04-28T01:49:59;98953.50;;;3.87;74.89
53340;BME280;46212;50.258;19.062;2023-04-28T01:52:25;98960.91;;;3.90;75.13
53340;BME280;46212;50.258;19.062;2023-04-28T01:54:52;98957.97;;;3.63;76.33
53340;BME280;46212;50.258;19.062;2023-04-28T01:57:17;98952.94;;;3.58;76.96
53340;BME280;46212;50.258;19.062;2023-04-28T01:59:43;98952.97;;;3.54;76.93
53340;BME280;46212;50.258;19.062;2023-04-28T02:02:08;98952.94;;;3.61;76.78
53340;BME280;46212;50.258;19.062;2023-04-28T02:04:33;98957.63;;;3.57;76.90
53340;BME280;46212;50.258;19.062;2023-04-28T02:06:59;98959.50;;;3.67;76.78
53340;BME280;46212;50.258;19.062;2023-04-28T02:09:24;98959.78;;;3.84;76.11
53340;BME280;46212;50.258;19.062;2023-04-28T02:11:50;98953.91;;;3.85;75.59
53340;BME280;46212;50.258;19.062;2023-04-28T02:14:15;98947.97;;;3.94;75.25
53340;BME280;46212;50.258;19.062;2023-04-28T02:16:41;98950.72;;;3.94;74.97
53340;BME280;46212;50.258;19.062;2023-04-28T02:19:06;98949.59;;;3.84;75.34
53340;BME280;46212;50.258;19.062;2023-04-28T02:21:32;98945.13;;;3.56;76.72
53340;BME280;46212;50.258;19.062;2023-04-28T02:23:57;98949.16;;;3.41;77.35
53340;BME280;46212;50.258;19.062;2023-04-28T02:26:23;98949.97;;;3.35;77.75
53340;BME280;46212;50.258;19.062;2023-04-28T02:28:48;98953.56;;;3.14;78.61
53340;BME280;46212;50.258;19.062;2023-04-28T02:31:14;98946.97;;;3.11;79.24
53340;BME280;46212;50.258;19.062;2023-04-28T02:33:39;98937.50;;;3.30;78.59
53340;BME280;46212;50.258;19.062;2023-04-28T02:36:07;98944.34;;;3.56;77.16
53340;BME280;46212;50.258;19.062;2023-04-28T02:38:32;98940.41;;;3.64;76.40
53340;BME280;46212;50.258;19.062;2023-04-28T02:41:02;98939.69;;;3.56;75.94
53340;BME280;46212;50.258;19.062;2023-04-28T02:43:29;98930.78;;;3.49;76.09
53340;BME280;46212;50.258;19.062;2023-04-28T02:45:55;98930.00;;;3.48;76.10
53340;BME280;46212;50.258;19.062;2023-04-28T02:48:21;98930.03;;;3.41;76.71
53340;BME280;46212;50.258;19.062;2023-04-28T02:50:47;98928.88;;;3.42;76.69
53340;BME280;46212;50.258;19.062;2023-04-28T02:53:12;98938.72;;;3.26;76.88
53340;BME280;46212;50.258;19.062;2023-04-28T02:55:38;98927.75;;;3.33;76.99
53340;BME280;46212;50.258;19.062;2023-04-28T02:58:03;98931.66;;;3.28;76.47
53340;BME280;46212;50.258;19.062;2023-04-28T03:00:29;98932.44;;;3.32;76.68
53340;BME280;46212;50.258;19.062;2023-04-28T03:02:54;98932.81;;;3.31;76.22
53340;BME280;46212;50.258;19.062;2023-04-28T03:05:19;98931.31;;;3.26;76.47
53340;BME280;46212;50.258;19.062;2023-04-28T03:07:45;98933.69;;;3.17;77.24
53340;BME280;46212;50.258;19.062;2023-04-28T03:10:11;98930.59;;;3.08;77.14
53340;BME280;46212;50.258;19.062;2023-04-28T03:12:36;98922.16;;;2.88;78.43
53340;BME280;46212;50.258;19.062;2023-04-28T03:15:02;98933.06;;;2.85;78.72
53340;BME280;46212;50.258;19.062;2023-04-28T03:17:27;98930.00;;;2.72;79.42
53340;BME280;46212;50.258;19.062;2023-04-28T03:19:53;98936.59;;;2.78;78.83
53340;BME280;46212;50.258;19.062;2023-04-28T03:22:18;98927.63;;;2.81;78.48
53340;BME280;46212;50.258;19.062;2023-04-28T03:24:43;98925.34;;;2.69;79.37
53340;BME280;46212;50.258;19.062;2023-04-28T03:27:09;98926.53;;;2.57;80.23
53340;BME280;46212;50.258;19.062;2023-04-28T03:29:34;98932.75;;;2.61;80.37
53340;BME280;46212;50.258;19.062;2023-04-28T03:32:00;98924.56;;;2.61;80.12
53340;BME280;46212;50.258;19.062;2023-04-28T03:34:26;98921.50;;;2.52;80.80
53340;BME280;46212;50.258;19.062;2023-04-28T03:36:51;98926.13;;;2.62;80.60
53340;BME280;46212;50.258;19.062;2023-04-28T03:39:17;98928.88;;;2.62;80.70
53340;BME280;46212;50.258;19.062;2023-04-28T03:41:43;98921.03;;;2.75;79.76
53340;BME280;46212;50.258;19.062;2023-04-28T03:44:08;98925.38;;;2.58;80.42
53340;BME280;46212;50.258;19.062;2023-04-28T03:46:33;98919.88;;;2.69;80.31
53340;BME280;46212;50.258;19.062;2023-04-28T03:48:59;98922.63;;;2.65;80.10
53340;BME280;46212;50.258;19.062;2023-04-28T03:51:27;98916.38;;;2.68;80.57
53340;BME280;46212;50.258;19.062;2023-04-28T03:53:53;98913.66;;;2.68;79.98
53340;BME280;46212;50.258;19.062;2023-04-28T03:56:19;98916.72;;;2.81;79.26
53340;BME280;46212;50.258;19.062;2023-04-28T03:58:44;98920.25;;;2.75;79.27
53340;BME280;46212;50.258;19.062;2023-04-28T04:01:10;98913.63;;;2.76;79.92
53340;BME280;46212;50.258;19.062;2023-04-28T04:03:35;98921.03;;;2.75;80.36
53340;BME280;46212;50.258;19.062;2023-04-28T04:06:01;98919.47;;;2.74;80.12
53340;BME280;46212;50.258;19.062;2023-04-28T04:08:26;98915.59;;;2.68;80.88
53340;BME280;46212;50.258;19.062;2023-04-28T04:10:52;98921.72;;;2.90;80.73
53340;BME280;46212;50.258;19.062;2023-04-28T04:13:19;98925.94;;;3.08;79.28
53340;BME280;46212;50.258;19.062;2023-04-28T04:15:45;98922.03;;;3.06;79.00
53340;BME280;46212;50.258;19.062;2023-04-28T04:18:10;98924.72;;;3.20;77.77
53340;BME280;46212;50.258;19.062;2023-04-28T04:20:36;98933.28;;;3.18;77.63
53340;BME280;46212;50.258;19.062;2023-04-28T04:23:01;98933.28;;;3.18;77.19
53340;BME280;46212;50.258;19.062;2023-04-28T04:25:28;98936.00;;;3.18;77.47
53340;BME280;46212;50.258;19.062;2023-04-28T04:27:53;98934.44;;;3.17;78.15
53340;BME280;46212;50.258;19.062;2023-04-28T04:30:19;98927.78;;;3.26;77.19
53340;BME280;46212;50.258;19.062;2023-04-28T04:32:44;98933.53;;;3.42;76.90
53340;BME280;46212;50.258;19.062;2023-04-28T04:35:10;98938.91;;;3.52;76.41
53340;BME280;46212;50.258;19.062;2023-04-28T04:37:35;98941.22;;;3.61;75.75
53340;BME280;46212;50.258;19.062;2023-04-28T04:40:01;98945.06;;;3.70;75.29
53340;BME280;46212;50.258;19.062;2023-04-28T04:42:27;98944.97;;;3.78;75.07
53340;BME280;46212;50.258;19.062;2023-04-28T04:44:52;98948.81;;;3.87;74.61
53340;BME280;46212;50.258;19.062;2023-04-28T04:47:18;98941.66;;;4.04;73.87
53340;BME280;46212;50.258;19.062;2023-04-28T04:49:43;98944.41;;;4.00;73.90
53340;BME280;46212;50.258;19.062;2023-04-28T04:52:09;98936.19;;;4.04;73.52
53340;BME280;46212;50.258;19.062;2023-04-28T04:54:34;98941.66;;;4.00;73.48
53340;BME280;46212;50.258;19.062;2023-04-28T04:56:59;98945.03;;;4.18;73.34
53340;BME280;46212;50.258;19.062;2023-04-28T04:59:26;98936.44;;;4.20;72.68
53340;BME280;46212;50.258;19.062;2023-04-28T05:01:52;98943.03;;;4.22;72.69
53340;BME280;46212;50.258;19.062;2023-04-28T05:04:17;98947.69;;;4.25;72.19
53340;BME280;46212;50.258;19.062;2023-04-28T05:06:43;98942.59;;;4.31;71.78
53340;BME280;46212;50.258;19.062;2023-04-28T05:09:08;98936.66;;;4.36;71.48
53340;BME280;46212;50.258;19.062;2023-04-28T05:11:34;98939.63;;;4.52;70.95
53340;BME280;46212;50.258;19.062;2023-04-28T05:13:59;98941.88;;;4.95;69.34
53340;BME280;46212;50.258;19.062;2023-04-28T05:16:25;98945.94;;;5.13;68.58
53340;BME280;46212;50.258;19.062;2023-04-28T05:18:51;98941.81;;;5.28;68.01
53340;BME280;46212;50.258;19.062;2023-04-28T05:21:17;98949.53;;;5.37;67.95
53340;BME280;46212;50.258;19.062;2023-04-28T05:23:42;98936.72;;;5.57;66.72
53340;BME280;46212;50.258;19.062;2023-04-28T05:26:07;98944.31;;;5.73;67.49
53340;BME280;46212;50.258;19.062;2023-04-28T05:28:33;98941.38;;;5.83;66.60
53340;BME280;46212;50.258;19.062;2023-04-28T05:30:58;98939.13;;;6.05;66.46
53340;BME280;46212;50.258;19.062;2023-04-28T05:33:23;98936.06;;;6.23;65.14
53340;BME280;46212;50.258;19.062;2023-04-28T05:35:49;98937.06;;;6.32;65.10
53340;BME280;46212;50.258;19.062;2023-04-28T05:38:14;98935.63;;;6.48;64.83
53340;BME280;46212;50.258;19.062;2023-04-28T05:40:40;98938.09;;;6.62;64.52
53340;BME280;46212;50.258;19.062;2023-04-28T05:43:05;98944.47;;;6.78;63.34
53340;BME280;46212;50.258;19.062;2023-04-28T05:45:31;98943.09;;;6.86;63.54
53340;BME280;46212;50.258;19.062;2023-04-28T05:47:56;98937.75;;;6.99;63.04
53340;BME280;46212;50.258;19.062;2023-04-28T05:50:22;98941.53;;;7.25;62.25
53340;BME280;46212;50.258;19.062;2023-04-28T05:52:47;98940.81;;;7.21;61.42
53340;BME280;46212;50.258;19.062;2023-04-28T05:55:13;98943.69;;;7.33;61.16
53340;BME280;46212;50.258;19.062;2023-04-28T05:57:38;98944.50;;;7.50;60.80
53340;BME280;46212;50.258;19.062;2023-04-28T06:00:04;98938.19;;;7.69;60.67
53340;BME280;46212;50.258;19.062;2023-04-28T06:02:29;98936.63;;;7.84;60.06
53340;BME280;46212;50.258;19.062;2023-04-28T06:04:55;98940.88;;;7.89;59.22
53340;BME280;46212;50.258;19.062;2023-04-28T06:07:20;98936.03;;;7.93;59.83
53340;BME280;46212;50.258;19.062;2023-04-28T06:09:46;98937.25;;;8.08;59.62
53340;BME280;46212;50.258;19.062;2023-04-28T06:12:11;98936.09;;;8.22;58.56
53340;BME280;46212;50.258;19.062;2023-04-28T06:14:37;98939.38;;;8.49;57.88
53340;BME280;46212;50.258;19.062;2023-04-28T06:17:03;98932.38;;;8.61;57.36
53340;BME280;46212;50.258;19.062;2023-04-28T06:19:28;98940.47;;;8.80;55.56
53340;BME280;46212;50.258;19.062;2023-04-28T06:21:54;98944.06;;;8.93;55.14
53340;BME280;46212;50.258;19.062;2023-04-28T06:24:19;98938.38;;;9.13;54.74
53340;BME280;46212;50.258;19.062;2023-04-28T06:26:45;98928.47;;;9.16;55.65
53340;BME280;46212;50.258;19.062;2023-04-28T06:29:10;98937.38;;;9.20;55.30
53340;BME280;46212;50.258;19.062;2023-04-28T06:31:36;98933.66;;;9.39;54.13
53340;BME280;46212;50.258;19.062;2023-04-28T06:34:01;98930.03;;;9.54;54.42
53340;BME280;46212;50.258;19.062;2023-04-28T06:36:27;98930.16;;;9.64;53.91
53340;BME280;46212;50.258;19.062;2023-04-28T06:38:52;98931.34;;;9.75;53.71
53340;BME280;46212;50.258;19.062;2023-04-28T06:41:18;98930.78;;;9.80;53.36
53340;BME280;46212;50.258;19.062;2023-04-28T06:43:43;98933.31;;;10.00;51.69
53340;BME280;46212;50.258;19.062;2023-04-28T06:46:09;98932.19;;;10.10;51.33
53340;BME280;46212;50.258;19.062;2023-04-28T06:48:35;98939.19;;;10.15;51.16
53340;BME280;46212;50.258;19.062;2023-04-28T06:51:01;98928.78;;;10.19;51.59
53340;BME280;46212;50.258;19.062;2023-04-28T06:53:27;98931.09;;;10.20;50.84
53340;BME280;46212;50.258;19.062;2023-04-28T06:55:53;98930.13;;;10.14;50.23
53340;BME280;46212;50.258;19.062;2023-04-28T06:58:19;98931.00;;;10.11;49.79
53340;BME280;46212;50.258;19.062;2023-04-28T07:00:44;98930.66;;;10.09;48.91
53340;BME280;46212;50.258;19.062;2023-04-28T07:03:10;98917.63;;;10.09;48.11
53340;BME280;46212;50.258;19.062;2023-04-28T07:05:36;98922.63;;;10.15;47.85
53340;BME280;46212;50.258;19.062;2023-04-28T07:08:02;98924.03;;;10.19;47.94
53340;BME280;46212;50.258;19.062;2023-04-28T07:10:28;98917.97;;;10.11;47.94
53340;BME280;46212;50.258;19.062;2023-04-28T07:12:53;98921.16;;;10.10;46.95
53340;BME280;46212;50.258;19.062;2023-04-28T07:15:18;98913.13;;;10.16;48.21
53340;BME280;46212;50.258;19.062;2023-04-28T07:17:44;98916.19;;;10.30;47.35
53340;BME280;46212;50.258;19.062;2023-04-28T07:20:09;98916.63;;;10.29;47.47
53340;BME280;46212;50.258;19.062;2023-04-28T07:22:35;98910.03;;;10.48;48.67
53340;BME280;46212;50.258;19.062;2023-04-28T07:25:01;98910.34;;;10.50;48.74
53340;BME280;46212;50.258;19.062;2023-04-28T07:27:26;98906.97;;;10.68;47.42
53340;BME280;46212;50.258;19.062;2023-04-28T07:29:51;98902.47;;;10.61;46.01
53340;BME280;46212;50.258;19.062;2023-04-28T07:32:17;98909.63;;;10.71;43.60
53340;BME280;46212;50.258;19.062;2023-04-28T07:34:42;98894.66;;;10.81;42.85
53340;BME280;46212;50.258;19.062;2023-04-28T07:37:08;98893.34;;;10.95;42.35
53340;BME280;46212;50.258;19.062;2023-04-28T07:39:33;98896.44;;;10.97;43.10
53340;BME280;46212;50.258;19.062;2023-04-28T07:42:00;98895.13;;;11.10;42.05
53340;BME280;46212;50.258;19.062;2023-04-28T07:44:27;98893.03;;;11.24;41.95
53340;BME280;46212;50.258;19.062;2023-04-28T07:46:53;98893.22;;;11.29;41.84
53340;BME280;46212;50.258;19.062;2023-04-28T07:49:18;98887.78;;;11.47;42.27
53340;BME280;46212;50.258;19.062;2023-04-28T07:51:44;98883.97;;;11.54;41.47
53340;BME280;46212;50.258;19.062;2023-04-28T07:54:09;98879.38;;;11.60;41.87
53340;BME280;46212;50.258;19.062;2023-04-28T07:56:35;98887.94;;;11.84;41.58
53340;BME280;46212;50.258;19.062;2023-04-28T07:59:00;98877.81;;;11.99;38.93
53340;BME280;46212;50.258;19.062;2023-04-28T08:01:26;98880.75;;;12.04;38.13
53340;BME280;46212;50.258;19.062;2023-04-28T08:03:51;98877.69;;;12.11;39.62
53340;BME280;46212;50.258;19.062;2023-04-28T08:06:17;98878.78;;;12.14;39.41
53340;BME280;46212;50.258;19.062;2023-04-28T08:08:43;98869.38;;;12.11;38.61
53340;BME280;46212;50.258;19.062;2023-04-28T08:11:08;98867.84;;;12.19;37.99
53340;BME280;46212;50.258;19.062;2023-04-28T08:13:33;98867.72;;;12.32;38.17
53340;BME280;46212;50.258;19.062;2023-04-28T08:15:59;98867.25;;;12.43;37.98
53340;BME280;46212;50.258;19.062;2023-04-28T08:18:25;98860.78;;;12.55;37.51
53340;BME280;46212;50.258;19.062;2023-04-28T08:20:51;98858.78;;;12.55;37.96
53340;BME280;46212;50.258;19.062;2023-04-28T08:23:16;98865.53;;;12.63;36.01
53340;BME280;46212;50.258;19.062;2023-04-28T08:25:42;98861.53;;;12.73;36.07
53340;BME280;46212;50.258;19.062;2023-04-28T08:28:07;98853.22;;;12.73;35.83
53340;BME280;46212;50.258;19.062;2023-04-28T08:30:33;98845.34;;;12.90;36.54
53340;BME280;46212;50.258;19.062;2023-04-28T08:32:59;98845.16;;;13.12;36.10
53340;BME280;46212;50.258;19.062;2023-04-28T08:35:24;98845.91;;;13.21;36.49
53340;BME280;46212;50.258;19.062;2023-04-28T08:37:51;98838.66;;;13.24;34.85
53340;BME280;46212;50.258;19.062;2023-04-28T08:40:16;98848.97;;;13.23;33.84
53340;BME280;46212;50.258;19.062;2023-04-28T08:42:43;98849.59;;;13.18;34.41
53340;BME280;46212;50.258;19.062;2023-04-28T08:45:12;98836.31;;;13.22;33.70
53340;BME280;46212;50.258;19.062;2023-04-28T08:47:39;98834.03;;;13.21;35.38
53340;BME280;46212;50.258;19.062;2023-04-28T08:52:31;98835.22;;;13.29;35.32
53340;BME280;46212;50.258;19.062;2023-04-28T08:55:04;98839.50;;;13.39;35.31
53340;BME280;46212;50.258;19.062;2023-04-28T08:57:44;98837.38;;;13.34;34.46
53340;BME280;46212;50.258;19.062;2023-04-28T09:00:11;98837.34;;;13.43;33.98
53340;BME280;46212;50.258;19.062;2023-04-28T09:02:37;98841.66;;;13.44;33.89
53340;BME280;46212;50.258;19.062;2023-04-28T09:05:12;98827.94;;;13.41;34.06
53340;BME280;46212;50.258;19.062;2023-04-28T09:07:39;98830.69;;;13.50;34.72
53340;BME280;46212;50.258;19.062;2023-04-28T09:10:19;98832.50;;;13.53;35.49
53340;BME280;46212;50.258;19.062;2023-04-28T09:12:45;98830.34;;;13.57;34.83
53340;BME280;46212;50.258;19.062;2023-04-28T09:15:24;98822.13;;;13.62;33.99
53340;BME280;46212;50.258;19.062;2023-04-28T09:17:51;98822.13;;;13.62;33.46
53340;BME280;46212;50.258;19.062;2023-04-28T09:20:27;98821.53;;;13.58;33.39
53340;BME280;46212;50.258;19.062;2023-04-28T09:22:55;98816.69;;;13.68;34.33
53340;BME280;46212;50.258;19.062;2023-04-28T09:25:21;98817.25;;;13.81;33.99
53340;BME280;46212;50.258;19.062;2023-04-28T09:27:51;98808.56;;;13.88;33.84
53340;BME280;46212;50.258;19.062;2023-04-28T09:30:17;98808.38;;;13.92;34.35
53340;BME280;46212;50.258;19.062;2023-04-28T09:32:42;98810.59;;;14.02;35.32
53340;BME280;46212;50.258;19.062;2023-04-28T09:35:08;98800.50;;;14.14;35.23
53340;BME280;46212;50.258;19.062;2023-04-28T09:37:34;98805.31;;;14.28;35.48
53340;BME280;46212;50.258;19.062;2023-04-28T09:40:09;98797.75;;;14.28;35.22
53340;BME280;46212;50.258;19.062;2023-04-28T09:42:44;98803.03;;;14.26;34.99
53340;BME280;46212;50.258;19.062;2023-04-28T09:45:14;98801.25;;;14.14;34.24
53340;BME280;46212;50.258;19.062;2023-04-28T09:47:42;98792.00;;;14.17;33.82
53340;BME280;46212;50.258;19.062;2023-04-28T09:50:09;98787.94;;;14.18;34.67
53340;BME280;46212;50.258;19.062;2023-04-28T09:52:37;98779.06;;;14.29;35.41
53340;BME280;46212;50.258;19.062;2023-04-28T09:55:05;98785.63;;;14.41;34.47
53340;BME280;46212;50.258;19.062;2023-04-28T09:57:32;98779.47;;;14.36;33.77
53340;BME280;46212;50.258;19.062;2023-04-28T09:59:59;98772.47;;;14.26;33.83
53340;BME280;46212;50.258;19.062;2023-04-28T10:02:25;98767.00;;;14.17;33.73
53340;BME280;46212;50.258;19.062;2023-04-28T10:04:51;98758.16;;;14.19;33.68
53340;BME280;46212;50.258;19.062;2023-04-28T10:07:18;98763.63;;;14.28;33.49
53340;BME280;46212;50.258;19.062;2023-04-28T10:09:48;98763.88;;;14.39;35.19
53340;BME280;46212;50.258;19.062;2023-04-28T10:12:22;98760.94;;;14.43;34.32
53340;BME280;46212;50.258;19.062;2023-04-28T10:14:49;98758.63;;;14.41;33.18
53340;BME280;46212;50.258;19.062;2023-04-28T10:17:16;98752.97;;;14.50;32.78
53340;BME280;46212;50.258;19.062;2023-04-28T10:19:44;98751.72;;;14.66;33.20
53340;BME280;46212;50.258;19.062;2023-04-28T10:27:37;98749.84;;;15.07;32.23
53340;BME280;46212;50.258;19.062;2023-04-28T10:30:13;98740.75;;;15.06;33.22
53340;BME280;46212;50.258;19.062;2023-04-28T10:32:40;98740.47;;;15.04;32.47
53340;BME280;46212;50.258;19.062;2023-04-28T10:38:14;98737.16;;;15.20;31.73
53340;BME280;46212;50.258;19.062;2023-04-28T10:40:42;98727.44;;;15.30;31.71
53340;BME280;46212;50.258;19.062;2023-04-28T10:43:08;98727.88;;;15.43;31.84
53340;BME280;46212;50.258;19.062;2023-04-28T10:56:15;98689.97;;;15.86;34.54
53340;BME280;46212;50.258;19.062;2023-04-28T10:58:53;98695.78;;;16.09;31.61
53340;BME280;46212;50.258;19.062;2023-04-28T11:08:50;98675.25;;;16.58;31.12
53340;BME280;46212;50.258;19.062;2023-04-28T11:11:17;98679.63;;;16.70;30.52
53340;BME280;46212;50.258;19.062;2023-04-28T11:13:44;98678.91;;;16.75;29.98
53340;BME280;46212;50.258;19.062;2023-04-28T11:16:13;98667.38;;;16.93;30.92
53340;BME280;46212;50.258;19.062;2023-04-28T11:18:54;98668.69;;;17.03;30.51
53340;BME280;46212;50.258;19.062;2023-04-28T11:21:20;98666.72;;;17.09;29.59
53340;BME280;46212;50.258;19.062;2023-04-28T11:23:46;98663.44;;;17.16;29.10
53340;BME280;46212;50.258;19.062;2023-04-28T11:26:12;98664.56;;;17.35;30.59
53340;BME280;46212;50.258;19.062;2023-04-28T11:28:55;98652.75;;;17.57;28.88
53340;BME280;46212;50.258;19.062;2023-04-28T11:31:23;98651.56;;;17.69;28.80
53340;BME280;46212;50.258;19.062;2023-04-28T11:34:09;98649.53;;;17.75;27.94
53340;BME280;46212;50.258;19.062;2023-04-28T11:36:41;98647.56;;;18.03;28.30
53340;BME280;46212;50.258;19.062;2023-04-28T11:39:11;98645.06;;;18.33;29.19
53340;BME280;46212;50.258;19.062;2023-04-28T11:41:39;98635.16;;;18.71;28.75
53340;BME280;46212;50.258;19.062;2023-04-28T11:44:19;98644.53;;;19.01;29.25
53340;BME280;46212;50.258;19.062;2023-04-28T11:46:49;98640.47;;;18.97;26.77
53340;BME280;46212;50.258;19.062;2023-04-28T11:49:16;98644.84;;;18.70;26.40
53340;BME280;46212;50.258;19.062;2023-04-28T11:51:42;98643.56;;;18.77;26.73
53340;BME280;46212;50.258;19.062;2023-04-28T11:54:10;98644.81;;;18.92;26.31
53340;BME280;46212;50.258;19.062;2023-04-28T11:56:39;98638.16;;;19.06;28.09
53340;BME280;46212;50.258;19.062;2023-04-28T11:59:08;98631.44;;;19.43;26.15
53340;BME280;46212;50.258;19.062;2023-04-28T12:04:13;98634.63;;;18.95;25.56
53340;BME280;46212;50.258;19.062;2023-04-28T12:06:39;98638.22;;;18.68;26.32
53340;BME280;46212;50.258;19.062;2023-04-28T12:09:15;98632.38;;;18.66;26.46
53340;BME280;46212;50.258;19.062;2023-04-28T12:11:54;98634.66;;;18.62;27.31
53340;BME280;46212;50.258;19.062;2023-04-28T12:14:21;98622.41;;;18.87;28.26
53340;BME280;46212;50.258;19.062;2023-04-28T12:16:46;98616.72;;;19.26;27.28
53340;BME280;46212;50.258;19.062;2023-04-28T12:19:13;98611.88;;;19.84;27.71
53340;BME280;46212;50.258;19.062;2023-04-28T12:21:40;98612.56;;;20.01;25.04
53340;BME280;46212;50.258;19.062;2023-04-28T12:24:14;98611.22;;;20.07;25.20
53340;BME280;46212;50.258;19.062;2023-04-28T12:26:40;98611.97;;;20.08;25.46
53340;BME280;46212;50.258;19.062;2023-04-28T12:29:06;98598.94;;;20.10;24.69
53340;BME280;46212;50.258;19.062;2023-04-28T12:31:50;98587.75;;;20.46;26.58
53340;BME280;46212;50.258;19.062;2023-04-28T12:34:18;98598.88;;;20.81;24.42
53340;BME280;46212;50.258;19.062;2023-04-28T12:36:44;98586.16;;;20.80;23.46
53340;BME280;46212;50.258;19.062;2023-04-28T12:39:14;98590.75;;;20.53;24.59
53340;BME280;46212;50.258;19.062;2023-04-28T12:41:44;98576.44;;;20.81;24.09
53340;BME280;46212;50.258;19.062;2023-04-28T12:44:09;98565.78;;;21.79;22.54
53340;BME280;46212;50.258;19.062;2023-04-28T12:46:35;98580.22;;;22.07;21.66
53340;BME280;46212;50.258;19.062;2023-04-28T12:49:01;98563.66;;;22.35;21.14
53340;BME280;46212;50.258;19.062;2023-04-28T12:51:27;98561.25;;;25.15;19.07
53340;BME280;46212;50.258;19.062;2023-04-28T12:53:53;98560.38;;;26.60;17.94
53340;BME280;46212;50.258;19.062;2023-04-28T12:56:19;98559.94;;;28.12;17.07
53340;BME280;46212;50.258;19.062;2023-04-28T12:58:44;98554.59;;;29.41;16.08
53340;BME280;46212;50.258;19.062;2023-04-28T13:01:10;98553.09;;;30.38;15.10
53340;BME280;46212;50.258;19.062;2023-04-28T13:03:36;98553.03;;;31.68;13.88
53340;BME280;46212;50.258;19.062;2023-04-28T13:06:01;98564.28;;;31.85;13.38
53340;BME280;46212;50.258;19.062;2023-04-28T13:08:27;98567.81;;;32.55;13.05
53340;BME280;46212;50.258;19.062;2023-04-28T13:10:55;98548.53;;;33.17;12.28
53340;BME280;46212;50.258;19.062;2023-04-28T13:13:20;98552.50;;;33.66;11.72
53340;BME280;46212;50.258;19.062;2023-04-28T13:15:46;98550.66;;;34.50;12.03
53340;BME280;46212;50.258;19.062;2023-04-28T13:18:11;98542.28;;;35.37;11.52
53340;BME280;46212;50.258;19.062;2023-04-28T13:20:36;98533.06;;;36.28;10.82
53340;BME280;46212;50.258;19.062;2023-04-28T13:23:02;98536.97;;;37.01;10.70